createdAt,value
2017-12-21T00:00:26.999Z,9.30
2017-12-21T00:02:53.229Z,9.30
2017-12-21T00:05:20.989Z,9.30
2017-12-21T00:07:47.254Z,9.30
2017-12-21T00:10:13.517Z,9.40
2017-12-21T00:12:39.798Z,9.30
2017-12-21T00:15:06.144Z,9.40
2017-12-21T00:17:33.225Z,9.30
2017-12-21T00:19:59.490Z,9.30
2017-12-21T00:22:40.735Z,9.40
2017-12-21T00:25:07.002Z,9.40
2017-12-21T00:27:33.725Z,9.40
2017-12-21T00:30:00.841Z,9.40
2017-12-21T00:32:27.109Z,9.40
2017-12-21T00:34:53.413Z,9.30
2017-12-21T00:37:20.544Z,9.30
2017-12-21T00:39:46.608Z,9.30
2017-12-21T00:42:12.890Z,9.40
2017-12-21T00:44:39.519Z,9.50
2017-12-21T00:47:07.049Z,9.50
2017-12-21T00:49:33.097Z,9.50
2017-12-21T00:51:59.142Z,9.60
2017-12-21T00:54:25.194Z,9.50
2017-12-21T00:56:51.568Z,9.50
2017-12-21T00:59:19.321Z,9.50
2017-12-21T01:01:45.536Z,9.50
2017-12-21T01:04:11.851Z,9.40
2017-12-21T01:06:38.194Z,9.40
2017-12-21T01:09:04.481Z,9.30
2017-12-21T01:11:30.777Z,8.90
2017-12-21T01:13:57.826Z,9.30
2017-12-21T01:16:24.925Z,9.20
2017-12-21T01:18:51.225Z,9.20
2017-12-21T01:21:17.461Z,9.10
2017-12-21T01:23:45.766Z,9.20
2017-12-21T01:26:12.837Z,9.20
2017-12-21T01:28:39.154Z,9.20
2017-12-21T01:31:05.509Z,9.30
2017-12-21T01:33:31.773Z,9.30
2017-12-21T01:35:58.753Z,9.30
2017-12-21T01:38:25.810Z,9.30
2017-12-21T01:40:52.164Z,9.30
2017-12-21T01:43:18.411Z,9.40
2017-12-21T01:45:44.657Z,9.40
2017-12-21T01:48:10.957Z,9.20
2017-12-21T01:50:38.005Z,9.30
2017-12-21T01:53:04.217Z,9.30
2017-12-21T01:55:30.778Z,9.30
2017-12-21T01:57:57.028Z,9.30
2017-12-21T02:00:23.294Z,9.20
2017-12-21T02:02:49.681Z,9.00
2017-12-21T02:05:19.989Z,9.10
2017-12-21T02:07:46.248Z,9.20
2017-12-21T02:10:13.022Z,9.30
2017-12-21T02:12:39.249Z,9.10
2017-12-21T02:15:05.527Z,9.10
2017-12-21T02:17:32.537Z,9.20
2017-12-21T02:19:59.199Z,9.20
2017-12-21T02:22:25.476Z,9.10
2017-12-21T02:24:51.736Z,9.20
2017-12-21T02:27:18.735Z,9.20
2017-12-21T02:29:45.084Z,9.10
2017-12-21T02:32:11.386Z,9.20
2017-12-21T02:34:38.397Z,9.10
2017-12-21T02:37:05.266Z,9.10
2017-12-21T02:39:31.827Z,9.00
2017-12-21T02:41:58.073Z,9.30
2017-12-21T02:44:24.325Z,9.30
2017-12-21T02:46:51.344Z,9.30
2017-12-21T02:49:17.626Z,9.30
2017-12-21T02:51:45.036Z,9.40
2017-12-21T02:54:11.289Z,9.40
2017-12-21T02:56:37.610Z,9.40
2017-12-21T02:59:03.989Z,9.30
2017-12-21T03:01:30.224Z,9.20
2017-12-21T03:03:56.488Z,9.30
2017-12-21T03:06:22.829Z,9.30
2017-12-21T03:08:49.073Z,9.20
2017-12-21T03:11:15.337Z,9.20
2017-12-21T03:13:41.665Z,9.00
2017-12-21T03:16:07.930Z,9.00
2017-12-21T03:18:34.933Z,8.90
2017-12-21T03:21:01.178Z,8.90
2017-12-21T03:23:27.452Z,8.80
2017-12-21T03:25:53.729Z,9.20
2017-12-21T03:28:20.053Z,9.00
2017-12-21T03:30:47.056Z,9.10
2017-12-21T03:33:13.376Z,9.10
2017-12-21T03:35:40.353Z,9.10
2017-12-21T03:38:06.594Z,9.10
2017-12-21T03:40:32.842Z,9.10
2017-12-21T03:42:59.161Z,9.10
2017-12-21T03:45:25.454Z,9.10
2017-12-21T03:47:51.729Z,9.10
2017-12-21T03:50:17.981Z,9.10
2017-12-21T03:52:44.310Z,9.00
2017-12-21T03:55:10.561Z,8.70
2017-12-21T03:57:37.541Z,9.00
2017-12-21T04:00:03.843Z,9.00
2017-12-21T04:02:30.321Z,9.00
2017-12-21T04:04:56.593Z,9.00
2017-12-21T04:07:22.841Z,8.90
2017-12-21T04:09:51.410Z,9.10
2017-12-21T04:12:17.692Z,9.10
2017-12-21T04:14:43.953Z,9.20
2017-12-21T04:17:10.170Z,9.00
2017-12-21T04:19:36.420Z,8.80
2017-12-21T04:22:02.813Z,8.80
2017-12-21T04:24:29.062Z,9.00
2017-12-21T04:26:55.332Z,9.10
2017-12-21T04:29:21.562Z,9.00
2017-12-21T04:31:47.790Z,9.20
2017-12-21T04:34:14.033Z,9.00
2017-12-21T04:36:40.315Z,9.00
2017-12-21T04:39:07.327Z,8.90
2017-12-21T04:41:34.573Z,8.90
2017-12-21T04:44:00.856Z,9.00
2017-12-21T04:46:27.136Z,9.00
2017-12-21T04:48:53.420Z,9.20
2017-12-21T04:51:19.721Z,9.10
2017-12-21T04:53:46.000Z,8.90
2017-12-21T04:56:12.286Z,9.00
2017-12-21T04:58:38.564Z,8.90
2017-12-21T05:01:04.847Z,8.90
2017-12-21T05:03:31.182Z,9.00
2017-12-21T05:06:05.893Z,9.10
2017-12-21T05:08:32.464Z,8.90
2017-12-21T05:10:58.717Z,8.80
2017-12-21T05:13:24.957Z,8.90
2017-12-21T05:15:51.229Z,8.90
2017-12-21T05:18:17.526Z,9.00
2017-12-21T05:20:43.797Z,9.00
2017-12-21T05:23:10.062Z,8.80
2017-12-21T05:25:37.370Z,8.90
2017-12-21T05:28:03.620Z,8.90
2017-12-21T05:30:29.908Z,9.00
2017-12-21T05:32:56.218Z,8.90
2017-12-21T05:35:22.462Z,8.90
2017-12-21T05:37:48.715Z,9.00
2017-12-21T05:40:14.977Z,9.10
2017-12-21T05:42:41.198Z,9.10
2017-12-21T05:45:07.453Z,9.10
2017-12-21T05:47:33.741Z,9.00
2017-12-21T05:49:59.989Z,9.00
2017-12-21T05:52:26.226Z,8.80
2017-12-21T05:54:53.503Z,8.70
2017-12-21T05:57:19.737Z,8.70
2017-12-21T05:59:45.989Z,8.80
2017-12-21T06:02:12.543Z,8.80
2017-12-21T06:04:38.832Z,8.90
2017-12-21T06:07:05.830Z,8.70
2017-12-21T06:09:32.090Z,8.70
2017-12-21T06:11:58.372Z,8.80
2017-12-21T06:14:25.380Z,8.90
2017-12-21T06:16:51.676Z,8.90
2017-12-21T06:19:18.725Z,9.00
2017-12-21T06:21:45.761Z,9.00
2017-12-21T06:24:12.006Z,8.70
2017-12-21T06:26:38.517Z,8.90
2017-12-21T06:29:05.517Z,8.90
2017-12-21T06:31:31.738Z,8.90
2017-12-21T06:34:04.885Z,8.90
2017-12-21T06:36:31.106Z,9.00
2017-12-21T06:38:57.345Z,8.90
2017-12-21T06:43:55.239Z,9.00
2017-12-21T06:46:21.653Z,9.00
2017-12-21T06:48:48.720Z,8.90
2017-12-21T06:51:14.963Z,8.90
2017-12-21T06:53:41.194Z,9.00
2017-12-21T06:56:07.488Z,9.00
2017-12-21T06:58:34.501Z,8.80
2017-12-21T07:01:00.777Z,8.80
2017-12-21T07:03:27.053Z,8.80
2017-12-21T07:05:54.022Z,8.60
2017-12-21T07:08:20.353Z,8.60
2017-12-21T07:10:48.577Z,8.80
2017-12-21T07:13:14.834Z,8.80
2017-12-21T07:15:41.081Z,8.70
2017-12-21T07:18:07.329Z,8.80
2017-12-21T07:20:33.582Z,8.70
2017-12-21T07:22:59.802Z,8.70
2017-12-21T07:25:26.037Z,8.70
2017-12-21T07:27:52.278Z,8.70
2017-12-21T07:30:18.614Z,8.90
2017-12-21T07:32:45.817Z,9.10
2017-12-21T07:35:12.093Z,9.10
2017-12-21T07:37:39.192Z,8.90
2017-12-21T07:40:05.425Z,8.90
2017-12-21T07:42:31.691Z,9.00
2017-12-21T07:44:57.925Z,9.00
2017-12-21T07:47:25.039Z,8.90
2017-12-21T07:49:51.321Z,8.90
2017-12-21T07:52:17.671Z,9.10
2017-12-21T07:54:43.956Z,9.10
2017-12-21T07:57:10.233Z,9.10
2017-12-21T07:59:36.490Z,8.90
2017-12-21T08:02:02.713Z,9.00
2017-12-21T08:04:28.947Z,9.10
2017-12-21T08:06:55.266Z,9.10
2017-12-21T08:09:21.513Z,9.10
2017-12-21T08:11:48.485Z,8.90
2017-12-21T08:14:14.769Z,9.20
2017-12-21T08:16:40.994Z,9.10
2017-12-21T08:19:10.457Z,9.10
2017-12-21T08:21:36.749Z,9.10
2017-12-21T08:24:04.461Z,9.00
2017-12-21T08:26:30.696Z,8.90
2017-12-21T08:28:56.925Z,8.90
2017-12-21T08:31:23.158Z,8.90
2017-12-21T08:33:49.332Z,9.10
2017-12-21T08:36:15.670Z,9.10
2017-12-21T08:38:41.922Z,9.10
2017-12-21T08:41:08.305Z,9.20
2017-12-21T08:43:37.553Z,9.20
2017-12-21T08:46:22.169Z,9.10
2017-12-21T08:48:48.302Z,9.10
2017-12-21T08:51:14.369Z,9.20
2017-12-21T08:53:40.528Z,9.30
2017-12-21T08:56:06.595Z,9.20
2017-12-21T08:58:33.408Z,9.30
2017-12-21T09:00:59.665Z,9.30
2017-12-21T09:03:25.704Z,9.30
2017-12-21T09:05:51.753Z,9.20
2017-12-21T09:08:17.856Z,9.10
2017-12-21T09:10:44.977Z,9.00
2017-12-21T09:13:11.054Z,9.30
2017-12-21T09:15:37.101Z,9.20
2017-12-21T09:18:03.156Z,9.10
2017-12-21T09:20:29.285Z,9.20
2017-12-21T09:22:55.526Z,9.00
2017-12-21T09:25:21.787Z,9.00
2017-12-21T09:27:48.817Z,9.00
2017-12-21T09:30:14.889Z,8.90
2017-12-21T09:32:41.130Z,9.00
2017-12-21T09:35:08.141Z,9.20
2017-12-21T09:37:34.213Z,9.20
2017-12-21T09:40:03.086Z,9.30
2017-12-21T09:42:29.349Z,9.30
2017-12-21T09:44:55.633Z,9.30
2017-12-21T09:47:21.896Z,9.40
2017-12-21T09:49:48.165Z,9.20
2017-12-21T09:52:14.453Z,9.20
2017-12-21T09:54:40.719Z,9.30
2017-12-21T09:57:08.945Z,9.40
2017-12-21T09:59:35.224Z,9.40
2017-12-21T10:02:01.453Z,9.40
2017-12-21T10:04:27.734Z,9.50
2017-12-21T10:06:54.005Z,9.40
2017-12-21T10:09:20.265Z,9.50
2017-12-21T10:11:47.288Z,9.40
2017-12-21T10:14:13.497Z,9.00
2017-12-21T10:16:41.474Z,9.50
2017-12-21T10:19:07.749Z,9.40
2017-12-21T10:21:34.025Z,9.40
2017-12-21T10:24:01.022Z,9.40
2017-12-21T10:26:27.300Z,9.30
2017-12-21T10:28:53.587Z,9.40
2017-12-21T10:31:19.882Z,9.40
2017-12-21T10:33:51.961Z,9.40
2017-12-21T10:36:18.216Z,9.40
2017-12-21T10:38:44.439Z,9.40
2017-12-21T10:41:10.721Z,9.20
2017-12-21T10:43:36.958Z,9.20
2017-12-21T10:46:03.245Z,9.20
2017-12-21T10:48:29.518Z,9.10
2017-12-21T10:50:56.638Z,9.40
2017-12-21T10:53:26.775Z,9.40
2017-12-21T10:55:54.532Z,9.50
2017-12-21T10:58:20.959Z,9.50
2017-12-21T11:00:47.171Z,9.40
2017-12-21T11:03:13.458Z,9.40
2017-12-21T11:05:39.891Z,9.40
2017-12-21T11:08:06.232Z,9.30
2017-12-21T11:10:32.599Z,9.30
2017-12-21T11:13:02.478Z,9.20
2017-12-21T11:15:28.782Z,9.20
2017-12-21T11:17:55.053Z,9.20
2017-12-21T11:20:22.101Z,9.60
2017-12-21T11:22:49.130Z,9.50
2017-12-21T11:25:15.386Z,9.50
2017-12-21T11:27:41.669Z,9.50
2017-12-21T11:30:08.685Z,9.40
2017-12-21T11:32:38.839Z,9.30
2017-12-21T11:35:05.124Z,9.50
2017-12-21T11:37:32.095Z,9.50
2017-12-21T11:39:58.365Z,9.50
2017-12-21T11:42:24.650Z,9.50
2017-12-21T11:44:50.914Z,9.60
2017-12-21T11:47:17.182Z,9.60
2017-12-21T11:49:43.495Z,9.60
2017-12-21T11:52:13.724Z,9.60
2017-12-21T11:54:40.021Z,9.60
2017-12-21T11:57:06.298Z,9.90
2017-12-21T11:59:33.313Z,9.60
2017-12-21T12:01:59.599Z,9.60
2017-12-21T12:04:25.862Z,9.70
2017-12-21T12:06:52.862Z,9.50
2017-12-21T12:09:22.584Z,9.50
2017-12-21T12:11:48.907Z,9.60
2017-12-21T12:14:15.142Z,9.60
2017-12-21T12:16:41.434Z,9.70
2017-12-21T12:19:07.701Z,9.80
2017-12-21T12:21:33.972Z,9.70
2017-12-21T12:24:00.241Z,9.70
2017-12-21T12:26:30.460Z,9.70
2017-12-21T12:28:56.777Z,9.80
2017-12-21T12:31:23.047Z,9.90
2017-12-21T12:33:50.043Z,9.90
2017-12-21T12:36:16.290Z,9.90
2017-12-21T12:38:42.535Z,9.90
2017-12-21T12:41:08.764Z,9.70
2017-12-21T12:43:38.813Z,9.70
2017-12-21T12:46:05.125Z,9.70
2017-12-21T12:48:31.402Z,9.70
2017-12-21T12:50:57.661Z,9.80
2017-12-21T12:53:24.726Z,9.80
2017-12-21T12:55:50.990Z,9.80
2017-12-21T12:58:17.246Z,9.90
2017-12-21T13:00:43.526Z,9.70
2017-12-21T13:03:13.858Z,9.70
2017-12-21T13:05:40.093Z,9.60
2017-12-21T13:08:06.362Z,9.50
2017-12-21T13:10:32.617Z,9.60
2017-12-21T13:12:58.882Z,9.60
2017-12-21T13:15:25.141Z,9.60
2017-12-21T13:17:51.401Z,9.80
2017-12-21T13:20:18.401Z,9.80
2017-12-21T13:22:49.258Z,9.90
2017-12-21T13:25:15.539Z,9.90
2017-12-21T13:27:41.790Z,9.90
2017-12-21T13:30:08.104Z,10.00
2017-12-21T13:32:34.353Z,9.70
2017-12-21T13:35:00.585Z,10.20
2017-12-21T13:37:26.824Z,10.10
2017-12-21T13:39:57.922Z,10.00
2017-12-21T13:42:24.910Z,10.10
2017-12-21T13:44:51.189Z,10.10
2017-12-21T13:47:17.535Z,10.10
2017-12-21T13:49:43.809Z,9.90
2017-12-21T13:52:10.078Z,9.90
2017-12-21T13:54:37.093Z,9.80
2017-12-21T13:59:36.108Z,9.80
2017-12-21T14:02:02.186Z,9.90
2017-12-21T14:04:28.260Z,9.90
2017-12-21T14:06:54.325Z,9.80
2017-12-21T14:09:20.642Z,9.90
2017-12-21T14:11:46.915Z,9.80
2017-12-21T14:14:13.902Z,9.90
2017-12-21T14:16:40.262Z,9.80
2017-12-21T14:19:10.225Z,9.90
2017-12-21T14:21:36.504Z,10.10
2017-12-21T14:24:02.801Z,10.00
2017-12-21T14:26:29.056Z,10.00
2017-12-21T14:28:55.281Z,9.80
2017-12-21T14:31:21.540Z,9.90
2017-12-21T14:33:47.785Z,10.10
2017-12-21T14:36:14.039Z,9.90
2017-12-21T14:38:40.249Z,9.70
2017-12-21T14:41:06.486Z,9.80
2017-12-21T14:43:32.755Z,9.80
2017-12-21T14:45:59.007Z,9.80
2017-12-21T14:48:25.392Z,9.80
2017-12-21T14:50:51.640Z,10.00
2017-12-21T14:53:17.887Z,10.00
2017-12-21T14:55:44.160Z,10.00
2017-12-21T14:58:10.410Z,9.90
2017-12-21T15:00:42.680Z,9.90
2017-12-21T15:03:08.934Z,10.00
2017-12-21T15:05:35.283Z,10.10
2017-12-21T15:08:01.521Z,10.20
2017-12-21T15:10:27.746Z,10.00
2017-12-21T15:12:53.958Z,9.90
2017-12-21T15:15:20.937Z,10.10
2017-12-21T15:17:47.186Z,10.10
2017-12-21T15:20:13.485Z,10.10
2017-12-21T15:22:39.733Z,10.00
2017-12-21T15:25:06.005Z,10.00
2017-12-21T15:27:33.043Z,10.00
2017-12-21T15:29:59.290Z,10.00
2017-12-21T15:32:26.093Z,10.10
2017-12-21T15:34:52.411Z,10.00
2017-12-21T15:37:18.758Z,10.00
2017-12-21T15:39:45.059Z,9.90
2017-12-21T15:42:11.339Z,9.90
2017-12-21T15:44:38.333Z,9.90
2017-12-21T15:47:05.372Z,9.90
2017-12-21T15:49:31.605Z,9.90
2017-12-21T15:52:02.125Z,9.90
2017-12-21T15:54:29.112Z,9.70
2017-12-21T15:56:56.123Z,9.80
2017-12-21T15:59:23.437Z,9.80
2017-12-21T16:01:49.728Z,9.90
2017-12-21T16:04:16.290Z,9.90
2017-12-21T16:06:43.129Z,10.00
2017-12-21T16:09:09.458Z,10.20
2017-12-21T16:11:35.717Z,10.00
2017-12-21T16:14:02.705Z,10.10
2017-12-21T16:16:28.971Z,10.10
2017-12-21T16:18:56.065Z,10.20
2017-12-21T16:21:23.113Z,10.30
2017-12-21T16:23:49.415Z,10.30
2017-12-21T16:26:15.664Z,10.40
2017-12-21T16:28:41.962Z,10.20
2017-12-21T16:31:08.285Z,10.10
2017-12-21T16:33:34.612Z,10.50
2017-12-21T16:36:04.198Z,10.30
2017-12-21T16:38:30.802Z,10.50
2017-12-21T16:40:57.864Z,10.30
2017-12-21T16:43:24.216Z,10.30
2017-12-21T16:45:50.626Z,10.40
2017-12-21T16:48:17.637Z,10.50
2017-12-21T16:50:43.904Z,10.50
2017-12-21T16:53:10.163Z,10.40
2017-12-21T16:55:36.489Z,10.50
2017-12-21T16:58:03.510Z,10.40
2017-12-21T17:00:29.785Z,10.40
2017-12-21T17:02:56.042Z,10.50
2017-12-21T17:05:22.339Z,10.40
2017-12-21T17:07:48.694Z,10.40
2017-12-21T17:10:14.961Z,10.40
2017-12-21T17:12:41.257Z,10.10
2017-12-21T17:15:07.541Z,9.90
2017-12-21T17:17:33.786Z,9.60
2017-12-21T17:20:01.715Z,9.80
2017-12-21T17:22:28.022Z,9.90
2017-12-21T17:24:54.377Z,9.90
2017-12-21T17:27:20.640Z,10.10
2017-12-21T17:29:47.650Z,10.20
2017-12-21T17:32:13.921Z,10.20
2017-12-21T17:34:40.174Z,10.20
2017-12-21T17:37:07.249Z,10.30
2017-12-21T17:39:34.260Z,10.40
2017-12-21T17:42:00.539Z,10.40
2017-12-21T17:44:26.817Z,10.50
2017-12-21T17:46:53.509Z,10.60
2017-12-21T17:49:19.720Z,10.50
2017-12-21T17:51:46.001Z,10.50
2017-12-21T17:54:12.236Z,10.40
2017-12-21T17:59:10.536Z,10.70
2017-12-21T18:01:36.841Z,10.60
2017-12-21T18:04:03.105Z,10.60
2017-12-21T18:06:29.397Z,10.70
2017-12-21T18:08:55.702Z,10.90
2017-12-21T18:11:22.034Z,10.60
2017-12-21T18:13:51.784Z,10.70
2017-12-21T18:16:18.070Z,10.50
2017-12-21T18:18:44.382Z,10.40
2017-12-21T18:21:10.717Z,10.40
2017-12-21T18:23:36.998Z,10.40
2017-12-21T18:26:03.261Z,10.50
2017-12-21T18:28:29.549Z,10.40
2017-12-21T18:30:55.793Z,10.40
2017-12-21T18:33:25.667Z,10.50
2017-12-21T18:35:52.686Z,10.80
2017-12-21T18:38:19.097Z,10.80
2017-12-21T18:40:46.190Z,10.90
2017-12-21T18:43:13.148Z,10.90
2017-12-21T18:45:39.426Z,10.90
2017-12-21T18:48:05.667Z,10.90
2017-12-21T18:50:31.971Z,10.80
2017-12-21T18:52:59.045Z,10.90
2017-12-21T18:55:25.295Z,11.00
2017-12-21T18:57:51.565Z,11.00
2017-12-21T19:00:17.924Z,10.70
2017-12-21T19:02:44.313Z,11.00
2017-12-21T19:05:10.570Z,10.90
2017-12-21T19:07:36.797Z,10.80
2017-12-21T19:10:03.048Z,10.80
2017-12-21T19:12:29.308Z,10.80
2017-12-21T19:14:55.687Z,10.90
2017-12-21T19:17:22.074Z,10.90
2017-12-21T19:19:48.304Z,11.00
2017-12-21T19:22:15.282Z,10.90
2017-12-21T19:24:41.529Z,10.90
2017-12-21T19:27:08.885Z,10.60
2017-12-21T19:29:35.865Z,10.70
2017-12-21T19:32:02.088Z,10.70
2017-12-21T19:34:29.038Z,10.90
2017-12-21T19:36:55.305Z,11.00
2017-12-21T19:39:21.531Z,11.10
2017-12-21T19:41:47.784Z,10.80
2017-12-21T19:44:14.040Z,10.80
2017-12-21T19:46:40.292Z,10.90
2017-12-21T19:49:06.650Z,10.90
2017-12-21T19:51:32.894Z,10.90
2017-12-21T19:53:59.142Z,10.60
2017-12-21T19:56:29.736Z,10.60
2017-12-21T19:58:55.976Z,10.50
2017-12-21T20:01:22.230Z,10.40
2017-12-21T20:03:48.512Z,10.50
2017-12-21T20:06:14.737Z,10.20
2017-12-21T20:08:41.757Z,10.20
2017-12-21T20:11:07.973Z,10.10
2017-12-21T20:13:34.233Z,10.00
2017-12-21T20:16:02.086Z,10.20
2017-12-21T20:18:28.450Z,10.30
2017-12-21T20:20:54.681Z,10.40
2017-12-21T20:23:20.912Z,10.60
2017-12-21T20:25:47.237Z,10.60
2017-12-21T20:28:13.489Z,10.60
2017-12-21T20:30:41.318Z,10.70
2017-12-21T20:33:07.656Z,10.70
2017-12-21T20:35:33.936Z,10.70
2017-12-21T20:38:06.226Z,10.30
2017-12-21T20:40:33.326Z,10.30
2017-12-21T20:42:59.592Z,10.30
2017-12-21T20:45:25.842Z,10.30
2017-12-21T20:47:52.089Z,10.40
2017-12-21T20:50:18.387Z,10.50
2017-12-21T20:52:44.661Z,10.60
2017-12-21T20:55:10.913Z,10.70
2017-12-21T20:57:37.210Z,10.60
2017-12-21T21:00:04.286Z,10.70
2017-12-21T21:02:30.628Z,10.70
2017-12-21T21:04:57.728Z,10.70
2017-12-21T21:07:23.983Z,10.70
2017-12-21T21:09:50.344Z,10.70
2017-12-21T21:12:17.349Z,10.50
2017-12-21T21:14:43.651Z,10.50
2017-12-21T21:17:17.868Z,10.60
2017-12-21T21:19:44.113Z,10.50
2017-12-21T21:22:10.370Z,10.60
2017-12-21T21:24:38.097Z,10.60
2017-12-21T21:27:04.401Z,10.60
2017-12-21T21:29:30.854Z,10.40
2017-12-21T21:31:57.105Z,10.50
2017-12-21T21:34:23.412Z,10.50
2017-12-21T21:36:51.181Z,10.50
2017-12-21T21:39:17.440Z,10.40
2017-12-21T21:41:43.686Z,10.40
2017-12-21T21:44:10.697Z,10.40
2017-12-21T21:46:36.988Z,10.40
2017-12-21T21:49:03.261Z,10.40
2017-12-21T21:51:29.581Z,10.40
2017-12-21T21:53:55.878Z,10.40
2017-12-21T21:56:22.338Z,10.40
2017-12-21T21:58:48.622Z,10.40
2017-12-21T22:01:14.911Z,10.10
2017-12-21T22:03:41.212Z,10.00
2017-12-21T22:06:07.491Z,10.30
2017-12-21T22:08:33.802Z,10.20
2017-12-21T22:11:00.413Z,10.20
2017-12-21T22:13:26.673Z,10.10
2017-12-21T22:15:53.770Z,10.20
2017-12-21T22:18:20.029Z,10.20
2017-12-21T22:20:46.361Z,10.20
2017-12-21T22:23:12.684Z,10.30
2017-12-21T22:25:38.999Z,10.30
2017-12-21T22:28:07.117Z,10.20
2017-12-21T22:30:33.414Z,10.20
2017-12-21T22:33:00.695Z,10.20
2017-12-21T22:35:27.701Z,10.20
2017-12-21T22:37:53.954Z,10.20
2017-12-21T22:40:20.229Z,10.20
2017-12-21T22:42:46.517Z,10.30
2017-12-21T22:45:12.813Z,10.30
2017-12-21T22:47:39.847Z,10.30
2017-12-21T22:50:06.112Z,10.50
2017-12-21T22:52:33.106Z,10.30
2017-12-21T22:54:59.353Z,10.20
2017-12-21T22:57:25.630Z,10.30
2017-12-21T22:59:54.774Z,10.30
2017-12-21T23:02:21.118Z,10.30
2017-12-21T23:04:47.379Z,10.30
2017-12-21T23:07:14.358Z,10.40
2017-12-21T23:09:40.579Z,10.40
2017-12-21T23:12:07.920Z,10.40
2017-12-21T23:14:34.933Z,10.40
2017-12-21T23:17:01.210Z,10.40
2017-12-21T23:19:27.514Z,10.40
2017-12-21T23:21:53.822Z,10.40
2017-12-21T23:24:20.072Z,10.50
2017-12-21T23:26:46.386Z,10.50
2017-12-21T23:29:12.645Z,10.40
2017-12-21T23:31:39.633Z,10.50
2017-12-21T23:34:05.941Z,10.50
2017-12-21T23:36:32.958Z,10.40
2017-12-21T23:39:00.323Z,10.40
2017-12-21T23:41:26.563Z,10.50
2017-12-21T23:43:52.850Z,10.40
2017-12-21T23:46:19.172Z,10.40
2017-12-21T23:48:45.469Z,10.40
2017-12-21T23:51:12.441Z,10.20
2017-12-21T23:53:38.709Z,10.30
2017-12-21T23:56:05.605Z,10.20
2017-12-21T23:58:32.603Z,10.20
